createdAt,value
2023-07-07T00:00:21.620Z,16.08
2023-07-07T00:02:48.600Z,16.10
2023-07-07T00:05:15.543Z,16.10
2023-07-07T00:07:43.707Z,16.13
2023-07-07T00:10:10.435Z,16.08
2023-07-07T00:12:39.441Z,16.02
2023-07-07T00:15:07.114Z,15.74
2023-07-07T00:17:33.936Z,15.66
2023-07-07T00:20:09.276Z,15.57
2023-07-07T00:22:36.137Z,15.50
2023-07-07T00:25:05.271Z,15.60
2023-07-07T00:27:32.313Z,15.56
2023-07-07T00:30:01.027Z,15.53
2023-07-07T00:32:27.802Z,15.48
2023-07-07T00:34:55.015Z,15.49
2023-07-07T00:37:21.724Z,15.47
2023-07-07T00:39:48.443Z,15.53
2023-07-07T00:42:17.096Z,15.60
2023-07-07T00:45:02.311Z,15.58
2023-07-07T00:47:29.029Z,15.43
2023-07-07T00:49:56.856Z,15.43
2023-07-07T00:52:24.121Z,15.40
2023-07-07T00:54:51.183Z,15.30
2023-07-07T00:57:19.640Z,15.24
2023-07-07T00:59:47.754Z,15.33
2023-07-07T01:02:26.283Z,15.29
2023-07-07T01:04:55.796Z,15.20
2023-07-07T01:07:25.111Z,15.10
2023-07-07T01:09:52.350Z,14.92
2023-07-07T01:12:20.511Z,14.80
2023-07-07T01:14:48.770Z,14.73
2023-07-07T01:17:22.137Z,14.82
2023-07-07T01:20:10.779Z,14.94
2023-07-07T01:22:58.460Z,14.95
2023-07-07T01:25:29.947Z,14.75
2023-07-07T01:28:12.192Z,14.60
2023-07-07T01:30:46.734Z,14.46
2023-07-07T01:33:15.784Z,14.56
2023-07-07T01:35:42.514Z,14.49
2023-07-07T01:38:24.028Z,14.47
2023-07-07T01:40:53.913Z,14.52
2023-07-07T01:43:27.704Z,14.52
2023-07-07T01:45:58.736Z,14.54
2023-07-07T01:48:31.270Z,14.38
2023-07-07T01:50:59.278Z,14.26
2023-07-07T01:53:27.508Z,14.21
2023-07-07T01:55:56.859Z,14.17
2023-07-07T01:58:25.246Z,14.18
2023-07-07T02:00:52.841Z,14.11
2023-07-07T02:03:21.067Z,14.16
2023-07-07T02:05:48.084Z,14.20
2023-07-07T02:08:15.134Z,14.17
2023-07-07T02:10:41.799Z,14.14
2023-07-07T02:13:08.542Z,14.22
2023-07-07T02:15:35.208Z,14.43
2023-07-07T02:18:02.137Z,14.62
2023-07-07T02:20:30.210Z,14.59
2023-07-07T02:22:57.348Z,14.46
2023-07-07T02:25:24.163Z,14.53
2023-07-07T02:27:50.857Z,14.52
2023-07-07T02:30:18.928Z,14.55
2023-07-07T02:32:45.660Z,14.47
2023-07-07T02:35:13.582Z,14.31
2023-07-07T02:37:41.695Z,14.15
2023-07-07T02:40:10.486Z,13.99
2023-07-07T02:42:38.393Z,13.79
2023-07-07T02:45:07.203Z,13.83
2023-07-07T02:47:33.903Z,13.87
2023-07-07T02:50:00.706Z,13.82
2023-07-07T02:52:28.682Z,13.72
2023-07-07T02:54:56.962Z,13.70
2023-07-07T02:57:23.706Z,13.71
2023-07-07T02:59:50.949Z,13.83
2023-07-07T03:02:17.798Z,13.69
2023-07-07T03:04:46.222Z,13.71
2023-07-07T03:07:12.956Z,13.88
2023-07-07T03:09:39.693Z,13.97
2023-07-07T03:12:08.988Z,13.95
2023-07-07T03:14:35.924Z,14.07
2023-07-07T03:17:06.949Z,14.14
2023-07-07T03:19:41.981Z,14.00
2023-07-07T03:22:15.315Z,13.76
2023-07-07T03:24:52.637Z,13.65
2023-07-07T03:27:30.032Z,13.69
2023-07-07T03:29:57.362Z,13.53
2023-07-07T03:32:24.105Z,13.38
2023-07-07T03:34:59.058Z,13.39
2023-07-07T03:37:26.907Z,13.53
2023-07-07T03:39:53.972Z,13.64
2023-07-07T03:42:20.752Z,13.59
2023-07-07T03:44:49.272Z,13.70
2023-07-07T03:47:16.018Z,13.78
2023-07-07T03:49:44.353Z,13.68
2023-07-07T03:52:11.696Z,13.52
2023-07-07T03:54:39.587Z,13.54
2023-07-07T03:57:06.557Z,13.54
2023-07-07T03:59:34.557Z,13.70
2023-07-07T04:02:03.332Z,13.73
2023-07-07T04:04:30.236Z,13.65
2023-07-07T04:06:57.488Z,13.59
2023-07-07T04:09:24.594Z,13.52
2023-07-07T04:11:51.838Z,13.43
2023-07-07T04:14:18.481Z,13.34
2023-07-07T04:16:48.030Z,13.39
2023-07-07T04:19:16.538Z,13.57
2023-07-07T04:21:43.223Z,13.76
2023-07-07T04:24:09.906Z,13.85
2023-07-07T04:26:39.945Z,13.88
2023-07-07T04:29:07.165Z,13.94
2023-07-07T04:31:33.882Z,14.05
2023-07-07T04:34:00.746Z,14.08
2023-07-07T04:36:28.878Z,14.18
2023-07-07T04:38:55.632Z,14.41
2023-07-07T04:41:23.272Z,14.77
2023-07-07T04:43:51.144Z,15.02
2023-07-07T04:46:19.328Z,15.30
2023-07-07T04:48:46.034Z,15.38
2023-07-07T04:51:13.561Z,15.60
2023-07-07T04:53:42.258Z,15.92
2023-07-07T04:56:11.528Z,16.29
2023-07-07T04:58:39.202Z,16.66
2023-07-07T05:01:07.577Z,17.18
2023-07-07T05:03:34.481Z,17.47
2023-07-07T05:06:04.163Z,17.77
2023-07-07T05:08:31.136Z,18.05
2023-07-07T05:11:00.290Z,18.16
2023-07-07T05:13:27.361Z,18.18
2023-07-07T05:15:59.748Z,18.19
2023-07-07T05:18:26.470Z,18.44
2023-07-07T05:20:53.111Z,18.95
2023-07-07T05:23:19.794Z,19.75
2023-07-07T05:25:46.625Z,20.35
2023-07-07T05:28:15.202Z,21.00
2023-07-07T05:30:42.126Z,21.68
2023-07-07T05:33:09.395Z,22.08
2023-07-07T05:35:36.213Z,22.68
2023-07-07T05:38:03.650Z,23.16
2023-07-07T05:40:31.016Z,23.52
2023-07-07T05:42:57.826Z,23.87
2023-07-07T05:45:25.898Z,24.26
2023-07-07T05:47:52.617Z,24.49
2023-07-07T05:50:19.360Z,24.80
2023-07-07T05:52:46.070Z,25.04
2023-07-07T05:55:22.646Z,25.28
2023-07-07T05:57:49.286Z,25.56
2023-07-07T06:00:17.722Z,25.96
2023-07-07T06:02:45.819Z,26.23
2023-07-07T06:05:12.610Z,26.30
2023-07-07T06:07:39.282Z,26.46
2023-07-07T06:10:06.694Z,26.64
2023-07-07T06:12:36.801Z,26.67
2023-07-07T06:15:03.900Z,26.77
2023-07-07T06:17:30.693Z,26.76
2023-07-07T06:19:58.784Z,26.70
2023-07-07T06:22:25.529Z,26.80
2023-07-07T06:24:52.737Z,26.61
2023-07-07T06:27:19.553Z,26.34
2023-07-07T06:29:46.495Z,26.40
2023-07-07T06:32:13.264Z,26.58
2023-07-07T06:34:40.224Z,26.61
2023-07-07T06:37:08.385Z,26.56
2023-07-07T06:39:35.136Z,26.49
2023-07-07T06:42:02.773Z,25.71
2023-07-07T06:44:34.841Z,25.88
2023-07-07T06:47:01.721Z,26.32
2023-07-07T06:49:28.364Z,26.83
2023-07-07T06:51:55.069Z,27.12
2023-07-07T06:54:23.069Z,27.41
2023-07-07T06:56:49.774Z,27.63
2023-07-07T06:59:16.501Z,27.65
2023-07-07T07:01:43.404Z,27.60
2023-07-07T07:04:10.303Z,27.91
2023-07-07T07:06:37.077Z,28.15
2023-07-07T07:09:03.892Z,28.03
2023-07-07T07:11:31.998Z,28.21
2023-07-07T07:13:58.720Z,28.06
2023-07-07T07:16:25.634Z,28.13
2023-07-07T07:18:52.353Z,28.16
2023-07-07T07:21:19.073Z,27.99
2023-07-07T07:23:46.125Z,28.05
2023-07-07T07:26:13.245Z,28.21
2023-07-07T07:28:41.312Z,28.14
2023-07-07T07:31:08.050Z,28.43
2023-07-07T07:33:34.776Z,28.50
2023-07-07T07:36:01.569Z,28.48
2023-07-07T07:38:31.122Z,28.57
2023-07-07T07:40:58.130Z,28.67
2023-07-07T07:43:25.143Z,29.11
2023-07-07T07:45:55.026Z,29.27
2023-07-07T07:48:21.755Z,29.48
2023-07-07T07:50:48.489Z,29.37
2023-07-07T07:53:15.256Z,29.65
2023-07-07T07:55:41.914Z,29.45
2023-07-07T07:58:08.705Z,29.65
2023-07-07T08:00:35.387Z,29.72
2023-07-07T08:03:03.877Z,30.03
2023-07-07T08:05:31.807Z,30.01
2023-07-07T08:07:58.644Z,30.35
2023-07-07T08:10:25.369Z,30.45
2023-07-07T08:12:52.354Z,30.31
2023-07-07T08:15:19.018Z,30.25
2023-07-07T08:17:45.793Z,30.57
2023-07-07T08:20:17.385Z,30.62
2023-07-07T08:22:44.121Z,30.65
2023-07-07T08:25:11.224Z,30.40
2023-07-07T08:27:39.187Z,30.48
2023-07-07T08:30:06.871Z,30.58
2023-07-07T08:32:34.033Z,30.62
2023-07-07T08:35:00.789Z,30.58
2023-07-07T08:37:29.134Z,30.78
2023-07-07T08:39:56.266Z,30.36
2023-07-07T08:42:28.134Z,30.73
2023-07-07T08:44:56.443Z,30.87
2023-07-07T08:47:39.735Z,30.59
2023-07-07T08:50:23.636Z,31.09
2023-07-07T08:53:00.093Z,31.23
2023-07-07T08:55:33.299Z,30.97
2023-07-07T09:00:35.431Z,31.29
2023-07-07T09:03:12.618Z,31.25
2023-07-07T09:05:45.494Z,31.38
2023-07-07T09:08:20.193Z,31.38
2023-07-07T09:10:51.712Z,31.20
2023-07-07T09:13:21.946Z,31.75
2023-07-07T09:15:57.944Z,31.29
2023-07-07T09:18:29.872Z,31.72
2023-07-07T09:20:58.915Z,32.21
2023-07-07T09:23:29.939Z,32.35
2023-07-07T09:25:58.907Z,32.51
2023-07-07T09:28:28.509Z,32.48
2023-07-07T09:30:58.726Z,32.27
2023-07-07T09:33:26.216Z,32.73
2023-07-07T09:36:01.205Z,33.12
2023-07-07T09:38:34.392Z,33.11
2023-07-07T09:41:10.043Z,33.13
2023-07-07T09:43:53.728Z,33.07
2023-07-07T09:46:23.240Z,32.61
2023-07-07T09:48:52.096Z,33.00
2023-07-07T09:51:23.072Z,33.31
2023-07-07T09:53:51.280Z,33.50
2023-07-07T09:56:21.304Z,33.67
2023-07-07T09:58:52.110Z,33.55
2023-07-07T10:01:20.206Z,33.66
2023-07-07T10:03:47.858Z,33.72
2023-07-07T10:06:19.867Z,34.00
2023-07-07T10:08:46.632Z,34.37
2023-07-07T10:13:47.629Z,34.61
2023-07-07T10:16:18.544Z,34.39
2023-07-07T10:18:53.674Z,34.43
2023-07-07T10:21:21.011Z,34.40
2023-07-07T10:23:47.660Z,34.20
2023-07-07T10:26:16.107Z,34.17
2023-07-07T10:28:43.184Z,34.14
2023-07-07T10:31:09.990Z,34.08
2023-07-07T10:33:37.472Z,33.91
2023-07-07T10:36:17.212Z,34.22
2023-07-07T10:38:56.203Z,34.14
2023-07-07T10:41:25.253Z,34.24
2023-07-07T10:43:51.925Z,34.24
2023-07-07T10:46:18.958Z,34.13
2023-07-07T10:48:46.163Z,34.18
2023-07-07T10:51:17.494Z,33.95
2023-07-07T10:53:50.799Z,34.38
2023-07-07T10:56:25.321Z,34.61
2023-07-07T10:59:03.618Z,34.67
2023-07-07T11:01:35.308Z,34.94
2023-07-07T11:04:10.118Z,35.23
2023-07-07T11:06:42.009Z,35.22
2023-07-07T11:09:16.477Z,34.98
2023-07-07T11:11:46.883Z,35.28
2023-07-07T11:14:31.401Z,35.20
2023-07-07T11:17:05.731Z,34.15
2023-07-07T11:19:43.770Z,33.75
2023-07-07T11:22:15.006Z,33.87
2023-07-07T11:27:22.702Z,33.41
2023-07-07T11:29:57.292Z,33.21
2023-07-07T11:32:28.483Z,33.48
2023-07-07T11:35:05.590Z,32.86
2023-07-07T11:37:40.474Z,33.45
2023-07-07T11:40:15.277Z,33.74
2023-07-07T11:42:53.463Z,34.18
2023-07-07T11:45:29.793Z,34.37
2023-07-07T11:48:02.936Z,34.76
2023-07-07T11:50:35.773Z,35.15
2023-07-07T11:53:15.685Z,35.15
2023-07-07T11:55:53.101Z,34.93
2023-07-07T11:58:25.534Z,34.96
2023-07-07T12:00:58.750Z,35.06
2023-07-07T12:03:35.136Z,35.16
2023-07-07T12:06:04.598Z,35.49
2023-07-07T12:08:37.027Z,35.24
2023-07-07T12:11:05.331Z,35.33
2023-07-07T12:13:34.952Z,35.70
2023-07-07T12:16:06.477Z,35.38
2023-07-07T12:18:34.383Z,34.87
2023-07-07T12:21:04.727Z,34.60
2023-07-07T12:23:33.670Z,34.68
2023-07-07T12:26:05.171Z,34.43
2023-07-07T12:28:32.119Z,34.98
2023-07-07T12:30:59.222Z,35.59
2023-07-07T12:33:27.347Z,35.83
2023-07-07T12:35:58.048Z,36.20
2023-07-07T12:38:27.881Z,36.34
2023-07-07T12:40:56.680Z,36.54
2023-07-07T12:43:25.249Z,36.49
2023-07-07T12:45:52.217Z,36.62
2023-07-07T12:48:20.306Z,36.56
2023-07-07T12:50:49.506Z,36.56
2023-07-07T12:53:22.425Z,36.11
2023-07-07T12:56:00.012Z,36.53
2023-07-07T12:58:40.572Z,36.45
2023-07-07T13:01:10.435Z,36.61
2023-07-07T13:03:43.968Z,36.57
2023-07-07T13:06:26.131Z,35.16
2023-07-07T13:09:03.481Z,34.22
2023-07-07T13:11:33.089Z,34.45
2023-07-07T13:14:00.243Z,34.60
2023-07-07T13:16:29.596Z,34.69
2023-07-07T13:18:56.522Z,34.68
2023-07-07T13:21:24.671Z,34.80
2023-07-07T13:23:53.227Z,34.85
2023-07-07T13:26:24.214Z,34.94
2023-07-07T13:28:50.869Z,34.52
2023-07-07T13:31:17.709Z,34.76
2023-07-07T13:33:44.624Z,34.94
2023-07-07T13:36:11.871Z,35.19
2023-07-07T13:38:41.213Z,35.35
2023-07-07T13:41:12.946Z,35.85
2023-07-07T13:43:43.556Z,36.05
2023-07-07T13:46:14.223Z,36.10
2023-07-07T13:48:43.008Z,36.31
2023-07-07T13:51:13.469Z,36.48
2023-07-07T13:53:40.222Z,36.36
2023-07-07T13:56:07.270Z,36.19
2023-07-07T13:58:40.535Z,36.08
2023-07-07T14:01:20.732Z,36.15
2023-07-07T14:03:48.686Z,36.21
2023-07-07T14:06:16.414Z,36.30
2023-07-07T14:08:43.306Z,36.24
2023-07-07T14:11:17.321Z,36.17
2023-07-07T14:13:51.179Z,36.22
2023-07-07T14:16:20.636Z,36.14
2023-07-07T14:18:59.226Z,36.02
2023-07-07T14:21:26.765Z,35.78
2023-07-07T14:23:53.537Z,35.56
2023-07-07T14:26:21.181Z,35.74
2023-07-07T14:28:49.369Z,36.03
2023-07-07T14:31:16.347Z,36.15
2023-07-07T14:33:44.976Z,36.12
2023-07-07T14:36:16.862Z,36.04
2023-07-07T14:38:47.013Z,36.11
2023-07-07T14:41:17.134Z,35.85
2023-07-07T14:43:44.055Z,35.52
2023-07-07T14:46:16.586Z,35.33
2023-07-07T14:48:46.896Z,35.05
2023-07-07T14:51:15.857Z,35.03
2023-07-07T14:53:42.603Z,34.77
2023-07-07T14:56:14.074Z,34.52
2023-07-07T14:58:41.227Z,34.38
2023-07-07T15:01:08.098Z,34.31
2023-07-07T15:03:39.806Z,34.21
2023-07-07T15:06:30.318Z,34.14
2023-07-07T15:08:57.495Z,34.19
2023-07-07T15:11:25.984Z,34.34
2023-07-07T15:13:53.616Z,34.48
2023-07-07T15:16:23.631Z,34.55
2023-07-07T15:18:51.923Z,34.47
2023-07-07T15:21:19.839Z,34.43
2023-07-07T15:23:46.598Z,34.33
2023-07-07T15:26:17.131Z,34.28
2023-07-07T15:28:43.823Z,34.33
2023-07-07T15:31:15.911Z,34.33
2023-07-07T15:33:42.872Z,34.36
2023-07-07T15:36:11.255Z,34.45
2023-07-07T15:38:49.570Z,34.51
2023-07-07T15:41:17.304Z,34.49
2023-07-07T15:43:43.989Z,34.37
2023-07-07T15:46:11.920Z,34.32
2023-07-07T15:48:39.067Z,34.33
2023-07-07T15:51:05.969Z,34.46
2023-07-07T15:53:37.121Z,34.60
2023-07-07T15:56:04.014Z,34.52
2023-07-07T15:58:30.770Z,34.49
2023-07-07T16:00:57.541Z,34.39
2023-07-07T16:03:24.319Z,34.26
2023-07-07T16:05:51.246Z,34.16
2023-07-07T16:08:18.056Z,34.06
2023-07-07T16:10:46.324Z,34.03
2023-07-07T16:13:13.079Z,34.09
2023-07-07T16:15:39.770Z,34.25
2023-07-07T16:18:08.748Z,34.39
2023-07-07T16:20:36.843Z,34.43
2023-07-07T16:23:03.704Z,34.33
2023-07-07T16:25:30.552Z,34.19
2023-07-07T16:27:58.671Z,34.18
2023-07-07T16:30:30.342Z,34.11
2023-07-07T16:32:57.109Z,34.08
2023-07-07T16:35:24.035Z,33.91
2023-07-07T16:37:50.839Z,33.78
2023-07-07T16:40:22.128Z,33.66
2023-07-07T16:42:49.192Z,33.62
2023-07-07T16:45:17.461Z,33.64
2023-07-07T16:47:44.641Z,33.75
2023-07-07T16:50:22.886Z,33.77
2023-07-07T16:52:50.229Z,33.67
2023-07-07T16:55:17.389Z,33.57
2023-07-07T16:57:44.595Z,33.58
2023-07-07T17:00:14.566Z,33.47
2023-07-07T17:02:42.778Z,33.38
2023-07-07T17:05:11.953Z,33.41
2023-07-07T17:07:38.661Z,33.40
2023-07-07T17:10:15.416Z,33.36
2023-07-07T17:12:42.125Z,33.34
2023-07-07T17:15:09.130Z,33.36
2023-07-07T17:17:36.327Z,33.28
2023-07-07T17:20:10.377Z,33.14
2023-07-07T17:22:37.049Z,33.08
2023-07-07T17:25:04.012Z,33.08
2023-07-07T17:27:30.667Z,33.01
2023-07-07T17:29:57.368Z,32.91
2023-07-07T17:32:24.042Z,32.85
2023-07-07T17:34:50.754Z,32.76
2023-07-07T17:37:18.831Z,32.77
2023-07-07T17:39:45.583Z,32.73
2023-07-07T17:42:12.255Z,32.68
2023-07-07T17:44:39.197Z,32.67
2023-07-07T17:47:09.013Z,32.71
2023-07-07T17:49:35.652Z,32.75
2023-07-07T17:52:03.345Z,32.68
2023-07-07T17:54:32.058Z,32.65
2023-07-07T17:56:58.778Z,32.61
2023-07-07T17:59:25.620Z,32.61
2023-07-07T18:01:53.156Z,32.63
2023-07-07T18:04:19.931Z,32.54
2023-07-07T18:06:47.902Z,32.42
2023-07-07T18:09:15.635Z,32.29
2023-07-07T18:11:43.760Z,32.16
2023-07-07T18:14:10.526Z,32.08
2023-07-07T18:16:40.754Z,32.00
2023-07-07T18:19:45.104Z,31.65
2023-07-07T18:22:00.443Z,31.29
2023-07-07T18:24:29.388Z,31.32
2023-07-07T18:26:57.480Z,31.31
2023-07-07T18:29:24.762Z,31.22
2023-07-07T18:31:51.611Z,31.08
2023-07-07T18:34:18.426Z,31.00
2023-07-07T18:36:48.241Z,30.97
2023-07-07T18:39:20.432Z,30.94
2023-07-07T18:41:47.219Z,30.81
2023-07-07T18:44:15.358Z,30.63
2023-07-07T18:46:43.020Z,30.62
2023-07-07T18:49:10.874Z,30.62
2023-07-07T18:51:42.582Z,30.62
2023-07-07T18:54:09.618Z,30.57
2023-07-07T18:56:36.668Z,30.55
2023-07-07T18:59:05.881Z,30.49
2023-07-07T19:01:35.977Z,30.44
2023-07-07T19:04:02.891Z,30.33
2023-07-07T19:06:30.528Z,30.24
2023-07-07T19:08:57.720Z,30.25
2023-07-07T19:11:24.423Z,30.18
2023-07-07T19:13:51.372Z,30.12
2023-07-07T19:16:19.664Z,30.01
2023-07-07T19:18:49.736Z,29.92
2023-07-07T19:21:23.905Z,29.95
2023-07-07T19:23:52.441Z,29.92
2023-07-07T19:26:20.471Z,29.83
2023-07-07T19:28:47.673Z,29.74
2023-07-07T19:31:15.330Z,29.64
2023-07-07T19:33:42.773Z,29.59
2023-07-07T19:36:14.593Z,29.44
2023-07-07T19:38:41.516Z,29.46
2023-07-07T19:41:11.547Z,29.33
2023-07-07T19:43:38.264Z,29.17
2023-07-07T19:46:13.583Z,29.10
2023-07-07T19:48:40.260Z,29.01
2023-07-07T19:51:07.190Z,28.96
2023-07-07T19:53:36.112Z,28.92
2023-07-07T19:56:02.839Z,28.96
2023-07-07T19:58:30.160Z,28.90
2023-07-07T20:00:56.908Z,28.85
2023-07-07T20:03:23.955Z,28.83
2023-07-07T20:05:50.672Z,28.76
2023-07-07T20:08:17.546Z,28.74
2023-07-07T20:10:45.689Z,28.64
2023-07-07T20:13:12.738Z,28.52
2023-07-07T20:15:43.199Z,28.49
2023-07-07T20:18:13.222Z,28.47
2023-07-07T20:20:40.075Z,28.49
2023-07-07T20:23:08.622Z,28.35
2023-07-07T20:25:35.399Z,28.21
2023-07-07T20:28:03.644Z,27.92
2023-07-07T20:30:30.927Z,27.66
2023-07-07T20:32:57.707Z,27.58
2023-07-07T20:35:24.475Z,27.49
2023-07-07T20:37:52.881Z,27.52
2023-07-07T20:40:20.929Z,27.56
2023-07-07T20:42:47.716Z,27.53
2023-07-07T20:45:15.897Z,27.51
2023-07-07T20:47:42.581Z,27.35
2023-07-07T20:50:16.472Z,27.37
2023-07-07T20:52:43.154Z,27.39
2023-07-07T20:55:10.412Z,27.43
2023-07-07T20:57:38.928Z,27.45
2023-07-07T21:00:11.521Z,27.46
2023-07-07T21:02:39.604Z,27.39
2023-07-07T21:05:06.315Z,27.34
2023-07-07T21:07:33.033Z,27.34
2023-07-07T21:10:01.331Z,27.36
2023-07-07T21:12:28.284Z,27.39
2023-07-07T21:14:54.929Z,27.35
2023-07-07T21:17:21.818Z,27.35
2023-07-07T21:19:49.936Z,27.27
2023-07-07T21:22:16.620Z,27.26
2023-07-07T21:24:43.301Z,27.22
2023-07-07T21:27:10.417Z,27.20
2023-07-07T21:29:39.096Z,27.12
2023-07-07T21:32:09.081Z,27.10
2023-07-07T21:34:35.785Z,27.05
2023-07-07T21:37:03.924Z,27.01
2023-07-07T21:39:32.388Z,26.98
2023-07-07T21:44:30.048Z,26.79
2023-07-07T21:46:56.770Z,26.62
2023-07-07T21:49:23.503Z,26.46
2023-07-07T21:51:50.149Z,26.22
2023-07-07T21:54:18.373Z,25.94
2023-07-07T21:56:44.986Z,25.61
2023-07-07T21:59:17.417Z,25.36
2023-07-07T22:01:45.499Z,25.21
2023-07-07T22:04:13.388Z,25.15
2023-07-07T22:06:40.292Z,25.05
2023-07-07T22:09:10.082Z,24.96
2023-07-07T22:11:38.305Z,24.97
2023-07-07T22:14:05.343Z,24.88
2023-07-07T22:16:32.077Z,24.68
2023-07-07T22:18:58.845Z,24.59
2023-07-07T22:21:25.600Z,24.42
2023-07-07T22:23:52.380Z,24.26
2023-07-07T22:26:20.369Z,24.00
2023-07-07T22:28:48.641Z,23.76
2023-07-07T22:31:16.163Z,23.77
2023-07-07T22:33:43.045Z,23.66
2023-07-07T22:36:12.590Z,23.56
2023-07-07T22:38:39.302Z,23.48
2023-07-07T22:41:06.018Z,23.46
2023-07-07T22:43:32.908Z,23.43
2023-07-07T22:46:02.182Z,23.30
2023-07-07T22:48:30.477Z,23.30
2023-07-07T22:50:59.414Z,23.27
2023-07-07T22:53:26.243Z,23.14
2023-07-07T22:55:53.519Z,23.21
2023-07-07T22:58:21.153Z,23.20
2023-07-07T23:00:48.526Z,23.18
2023-07-07T23:06:09.414Z,23.09
2023-07-07T23:08:36.586Z,22.82
2023-07-07T23:11:03.290Z,22.58
2023-07-07T23:13:30.101Z,22.46
2023-07-07T23:15:56.951Z,22.34
2023-07-07T23:18:24.988Z,22.20
2023-07-07T23:20:51.655Z,22.06
2023-07-07T23:23:23.029Z,21.95
2023-07-07T23:25:58.103Z,21.73
2023-07-07T23:28:28.160Z,21.72
2023-07-07T23:31:05.179Z,21.70
2023-07-07T23:33:34.357Z,21.76
2023-07-07T23:36:02.087Z,21.80
2023-07-07T23:38:28.797Z,21.70
2023-07-07T23:40:55.483Z,21.68
2023-07-07T23:43:22.144Z,21.75
2023-07-07T23:45:49.377Z,21.64
2023-07-07T23:48:17.078Z,21.54
2023-07-07T23:50:48.682Z,21.51
2023-07-07T23:53:15.939Z,21.51
2023-07-07T23:55:42.771Z,21.58
2023-07-07T23:58:10.351Z,21.49
